Time;durP1;ratioP1;P1;durP2;ratioP2;P2;SDS_P1;SDS_P2;PMS_P1;PMS_P2;Temp;Humidity;BMP_temperature;BMP_pressure;BME280_temperature;BME280_humidity;BME280_pressure;Samples;Min_cycle;Max_cycle;Signal;HPM_P1;HPM_P2
2021/11/09 00:00:53;;;;;;;11.25;5.07;;;6.30;99.90;;;;;;5108527;28;20022;-85
2021/11/09 00:03:19;;;;;;;10.80;6.55;;;6.30;99.90;;;;;;5125007;28;20395;-84
2021/11/09 00:05:53;;;;;;;13.20;6.10;;;6.30;99.90;;;;;;5109162;28;20092;-85
2021/11/09 00:08:37;;;;;;;10.55;5.57;;;6.30;99.90;;;;;;5109378;28;20500;-86
2021/11/09 00:11:03;;;;;;;;;;;6.30;99.90;;;;;;5108608;28;20039;-86
2021/11/09 00:13:29;;;;;;;8.50;4.72;;;6.20;99.90;;;;;;5108036;28;19943;-86
2021/11/09 00:15:56;;;;;;;11.20;5.22;;;6.20;99.90;;;;;;5108415;28;20019;-84
2021/11/09 00:18:22;;;;;;;11.68;5.28;;;6.10;99.90;;;;;;5108558;28;20039;-86
2021/11/09 00:20:48;;;;;;;10.73;5.38;;;6.10;99.90;;;;;;5109058;28;20020;-86
2021/11/09 00:23:15;;;;;;;10.82;5.38;;;6.00;99.90;;;;;;5108794;28;20026;-86
2021/11/09 00:25:41;;;;;;;9.18;5.35;;;6.00;99.90;;;;;;5107962;28;20039;-84
2021/11/09 00:28:10;;;;;;;12.30;5.78;;;6.00;99.90;;;;;;5108866;28;20487;-85
2021/11/09 00:30:37;;;;;;;11.05;5.50;;;5.90;99.90;;;;;;5107779;28;20125;-87
2021/11/09 00:33:04;;;;;;;11.18;5.97;;;5.90;99.90;;;;;;5121078;28;20024;-85
2021/11/09 00:35:33;;;;;;;11.52;5.55;;;5.90;99.90;;;;;;5108576;28;20031;-86
2021/11/09 00:38:03;;;;;;;7.95;5.15;;;5.90;99.90;;;;;;5115232;28;20061;-86
2021/11/09 00:40:32;;;;;;;11.93;6.03;;;5.90;99.90;;;;;;5114979;28;20147;-86
2021/11/09 00:42:59;;;;;;;8.82;5.68;;;5.80;99.90;;;;;;5116720;28;20048;-85
2021/11/09 00:45:26;;;;;;;11.43;5.43;;;5.80;99.90;;;;;;5115755;28;20047;-86
2021/11/09 00:47:52;;;;;;;10.10;5.72;;;5.70;99.90;;;;;;5115595;28;20107;-86
2021/11/09 00:50:20;;;;;;;10.70;5.45;;;5.70;99.90;;;;;;5114967;28;20111;-86
2021/11/09 00:52:47;;;;;;;10.63;5.85;;;5.60;99.90;;;;;;5114837;28;20467;-85
2021/11/09 00:55:14;;;;;;;13.05;6.00;;;5.60;99.90;;;;;;5114693;28;20463;-86
2021/11/09 00:57:44;;;;;;;12.23;5.75;;;5.60;99.90;;;;;;5115047;28;20053;-86
2021/11/09 01:00:14;;;;;;;8.38;5.78;;;5.60;99.90;;;;;;5115077;28;20153;-86
2021/11/09 01:02:44;;;;;;;16.98;6.03;;;5.60;99.90;;;;;;5115120;28;20030;-86
2021/11/09 01:05:12;;;;;;;9.85;5.57;;;5.60;99.90;;;;;;5115303;28;20012;-86
2021/11/09 01:07:39;;;;;;;7.80;4.97;;;5.50;99.90;;;;;;5115176;28;20024;-86
2021/11/09 01:10:08;;;;;;;13.38;5.57;;;5.50;99.90;;;;;;5115158;28;20012;-86
2021/11/09 01:12:35;;;;;;;10.15;5.88;;;5.50;99.90;;;;;;5114908;28;20027;-85
2021/11/09 01:15:02;;;;;;;8.85;5.18;;;5.50;99.90;;;;;;5114874;28;20114;-86
2021/11/09 01:17:28;;;;;;;9.13;5.45;;;5.50;99.90;;;;;;5115976;28;20019;-86
2021/11/09 01:19:55;;;;;;;9.65;5.47;;;5.50;99.90;;;;;;5115268;28;20032;-85
2021/11/09 01:22:22;;;;;;;11.48;5.50;;;5.50;99.90;;;;;;5115743;28;20012;-86
2021/11/09 01:24:48;;;;;;;9.85;4.95;;;5.40;99.90;;;;;;5114605;28;20115;-86
2021/11/09 01:27:14;;;;;;;10.30;5.10;;;5.40;99.90;;;;;;5114626;28;20102;-85
2021/11/09 01:29:40;;;;;;;8.82;5.15;;;5.40;99.90;;;;;;5114393;28;20470;-86
2021/11/09 01:32:06;;;;;;;9.25;5.40;;;5.40;99.90;;;;;;5114882;28;20475;-86
2021/11/09 01:34:32;;;;;;;10.00;5.35;;;5.40;99.90;;;;;;5114876;28;20080;-87
2021/11/09 01:36:59;;;;;;;9.25;5.07;;;5.30;99.90;;;;;;5113881;28;20031;-86
2021/11/09 01:39:25;;;;;;;10.38;5.45;;;5.30;99.90;;;;;;5113766;28;20035;-86
2021/11/09 01:41:51;;;;;;;10.60;5.43;;;5.30;99.90;;;;;;5114134;28;20020;-87
2021/11/09 01:44:17;;;;;;;11.35;5.43;;;5.20;99.90;;;;;;5114490;28;20008;-86
2021/11/09 01:46:45;;;;;;;10.20;5.80;;;5.20;99.90;;;;;;5114335;28;20072;-84
2021/11/09 01:49:12;;;;;;;10.82;5.15;;;5.20;99.90;;;;;;5114130;28;20652;-86
2021/11/09 01:51:39;;;;;;;9.10;5.13;;;5.20;99.90;;;;;;5114445;28;20135;-86
2021/11/09 01:54:06;;;;;;;8.43;5.05;;;5.20;99.90;;;;;;5114463;28;20019;-86
2021/11/09 01:56:35;;;;;;;8.13;5.15;;;5.20;99.90;;;;;;5114660;28;20085;-87
2021/11/09 01:59:01;;;;;;;9.18;4.72;;;5.20;99.90;;;;;;5114282;28;20031;-86
2021/11/09 02:01:28;;;;;;;9.13;5.38;;;5.10;99.90;;;;;;5114519;28;20036;-86
2021/11/09 02:03:59;;;;;;;9.38;5.35;;;5.20;99.90;;;;;;5114589;28;20020;-86
2021/11/09 02:06:26;;;;;;;12.40;5.60;;;5.10;99.90;;;;;;5125655;27;20012;-87
2021/11/09 02:09:02;;;;;;;7.53;4.88;;;5.10;99.90;;;;;;5113297;28;20116;-86
2021/11/09 02:11:28;;;;;;;8.93;4.90;;;5.10;99.90;;;;;;5113365;28;20020;-86
2021/11/09 02:13:55;;;;;;;7.43;4.97;;;5.10;99.90;;;;;;5114568;28;20030;-86
2021/11/09 02:16:22;;;;;;;10.77;5.30;;;5.10;99.90;;;;;;5114791;28;20020;-86
2021/11/09 02:18:49;;;;;;;10.85;5.78;;;5.10;99.90;;;;;;5115880;28;20024;-86
2021/11/09 02:21:15;;;;;;;8.23;5.20;;;5.00;99.90;;;;;;5113997;28;20497;-86
2021/11/09 02:23:44;;;;;;;11.23;5.63;;;5.00;99.90;;;;;;5113541;28;20124;-86
2021/11/09 02:26:13;;;;;;;8.65;5.22;;;5.00;99.90;;;;;;5113859;28;20023;-87
2021/11/09 02:28:41;;;;;;;8.95;5.60;;;5.00;99.90;;;;;;5114396;28;20031;-86
2021/11/09 02:31:09;;;;;;;10.65;5.68;;;4.90;99.90;;;;;;5113373;28;20509;-86
2021/11/09 02:33:36;;;;;;;9.98;5.93;;;4.90;99.90;;;;;;5113214;28;20020;-86
2021/11/09 02:36:03;;;;;;;8.18;4.88;;;4.90;99.90;;;;;;5112879;28;20023;-86
2021/11/09 02:38:29;;;;;;;10.85;5.85;;;4.90;99.90;;;;;;5112671;28;20047;-86
2021/11/09 02:40:56;;;;;;;8.90;5.15;;;4.80;99.90;;;;;;5112806;28;20046;-86
2021/11/09 02:43:24;;;;;;;11.02;5.70;;;4.80;99.90;;;;;;5112883;28;20020;-86
2021/11/09 02:49:14;;;;;;;7.55;5.32;;;4.80;99.90;;;;;;5114310;28;20085;-86
2021/11/09 02:51:47;;;;;;;9.35;5.35;;;4.80;99.90;;;;;;5114446;28;20380;-86
2021/11/09 02:59:35;;;;;;;9.93;6.22;;;4.80;99.90;;;;;;5109977;28;20043;-86
2021/11/09 03:02:17;;;;;;;13.57;5.10;;;4.70;99.90;;;;;;5101981;28;20099;-86
2021/11/09 03:10:00;;;;;;;9.13;6.28;;;4.70;99.90;;;;;;5114547;28;20133;-86
2021/11/09 03:12:34;;;;;;;8.80;5.63;;;4.70;99.90;;;;;;5113622;28;20019;-86
2021/11/09 03:15:01;;;;;;;9.40;6.40;;;4.60;99.90;;;;;;5113572;28;20020;-86
2021/11/09 03:17:37;;;;;;;12.95;5.88;;;4.60;99.90;;;;;;5113469;28;20084;-85
2021/11/09 03:20:04;;;;;;;9.18;5.85;;;4.70;99.90;;;;;;5130365;27;20122;-86
2021/11/09 03:47:10;;;;;;;8.45;5.38;;;4.60;99.90;;;;;;5114257;28;20024;-86
2021/11/09 03:49:36;;;;;;;12.07;5.68;;;4.50;99.90;;;;;;5112913;28;20027;-87
2021/11/09 03:52:11;;;;;;;9.50;5.60;;;4.50;99.90;;;;;;5113443;28;20091;-86
2021/11/09 03:54:37;;;;;;;9.82;5.50;;;4.50;99.90;;;;;;5113558;28;20015;-87
2021/11/09 03:57:26;;;;;;;11.27;5.60;;;4.40;99.90;;;;;;5114576;28;20418;-87
2021/11/09 04:02:51;;;;;;;8.18;5.45;;;4.40;99.90;;;;;;5114230;28;20028;-87
2021/11/09 04:05:21;;;;;;;9.80;5.80;;;4.40;99.90;;;;;;5113348;28;20487;-87
2021/11/09 04:07:58;;;;;;;10.40;5.72;;;4.40;99.90;;;;;;5112610;28;20402;-86
2021/11/09 04:10:35;;;;;;;7.97;4.88;;;4.40;99.90;;;;;;5131043;27;20335;-87
2021/11/09 04:18:13;;;;;;;8.27;5.20;;;4.30;99.90;;;;;;5118210;28;20027;-87
2021/11/09 04:24:00;;;;;;;;;;;4.30;99.90;;;;;;5118613;28;20024;-87
2021/11/09 04:50:38;;;;;;;9.82;5.38;;;4.10;99.90;;;;;;5117617;27;20028;-86
2021/11/09 05:01:12;;;;;;;8.02;5.53;;;4.00;99.90;;;;;;5117341;28;20378;-87
2021/11/09 05:09:23;;;;;;;10.65;5.72;;;4.00;99.90;;;;;;5116993;28;20119;-86
2021/11/09 05:11:48;;;;;;;10.77;6.22;;;4.00;99.90;;;;;;5116052;28;20073;-86
2021/11/09 05:14:15;;;;;;;10.48;5.63;;;4.00;99.90;;;;;;5116032;28;20019;-87
2021/11/09 05:16:41;;;;;;;11.35;5.95;;;3.90;99.90;;;;;;5115717;28;20027;-87
2021/11/09 05:19:08;;;;;;;8.82;5.63;;;3.90;99.90;;;;;;5115730;28;20074;-86
2021/11/09 05:21:36;;;;;;;10.50;6.10;;;3.90;99.90;;;;;;5116801;28;20064;-87
2021/11/09 05:24:02;;;;;;;12.30;6.80;;;3.90;99.90;;;;;;5098533;28;20356;-87
2021/11/09 05:26:28;;;;;;;12.40;6.30;;;3.90;99.90;;;;;;5115833;28;20106;-87
2021/11/09 05:28:54;;;;;;;11.20;6.30;;;4.00;99.90;;;;;;5098684;28;20486;-87
2021/11/09 05:31:21;;;;;;;12.85;6.88;;;3.90;99.90;;;;;;5098997;28;20036;-87
2021/11/09 05:33:51;;;;;;;10.68;6.82;;;4.00;99.90;;;;;;5113068;27;20466;-87
2021/11/09 05:36:17;;;;;;;13.65;7.28;;;4.00;99.90;;;;;;5114539;27;20026;-86
2021/11/09 05:38:57;;;;;;;12.95;7.65;;;4.00;99.90;;;;;;5113834;27;20028;-87
2021/11/09 05:41:24;;;;;;;12.25;7.22;;;4.10;99.90;;;;;;5112679;28;20048;-88
2021/11/09 05:43:50;;;;;;;13.15;7.75;;;4.10;99.90;;;;;;5102299;28;20024;-86
2021/11/09 05:46:16;;;;;;;15.98;7.80;;;4.10;99.90;;;;;;5113261;28;20409;-87
2021/11/09 05:48:42;;;;;;;13.55;7.10;;;4.20;99.90;;;;;;5113970;28;20081;-87
2021/11/09 05:51:09;;;;;;;15.93;8.30;;;4.20;99.90;;;;;;5112586;28;20016;-87
2021/11/09 05:53:37;;;;;;;12.43;7.43;;;4.20;99.90;;;;;;5095935;28;20055;-87
2021/11/09 05:56:04;;;;;;;12.27;7.53;;;4.20;99.90;;;;;;5112962;28;20016;-87
2021/11/09 05:58:30;;;;;;;13.43;7.30;;;4.10;99.90;;;;;;5112742;28;20023;-87
2021/11/09 06:00:56;;;;;;;16.73;8.20;;;4.10;99.90;;;;;;5112409;28;20038;-87
2021/11/09 06:03:24;;;;;;;16.55;8.68;;;4.10;99.90;;;;;;5113040;28;20028;-87
2021/11/09 06:05:51;;;;;;;10.90;7.03;;;4.00;99.90;;;;;;5103174;28;20023;-87
2021/11/09 06:08:21;;;;;;;16.02;7.78;;;4.00;99.90;;;;;;5112629;28;20027;-87
2021/11/09 06:11:10;;;;;;;13.85;7.55;;;4.00;99.90;;;;;;5112878;28;20076;-87
2021/11/09 06:13:38;;;;;;;14.90;7.80;;;4.00;99.90;;;;;;5112085;28;20027;-87
2021/11/09 06:16:05;;;;;;;13.32;7.90;;;3.90;99.90;;;;;;5112280;28;20069;-87
2021/11/09 06:18:30;;;;;;;13.68;7.28;;;3.90;99.90;;;;;;5111636;28;20059;-88
2021/11/09 06:20:56;;;;;;;14.45;7.93;;;3.90;99.90;;;;;;5111833;28;20031;-87
2021/11/09 06:23:28;;;;;;;12.10;7.53;;;3.90;99.90;;;;;;5094948;28;20091;-88
2021/11/09 06:25:54;;;;;;;12.43;7.20;;;3.90;99.90;;;;;;5086722;28;20115;-87
2021/11/09 06:28:27;;;;;;;12.82;7.88;;;3.90;99.90;;;;;;5122131;27;20068;-88
2021/11/09 06:30:53;;;;;;;10.60;6.68;;;3.90;99.90;;;;;;5115810;27;20482;-88
2021/11/09 06:33:20;;;;;;;10.93;7.07;;;3.80;99.90;;;;;;5114024;28;20383;-87
2021/11/09 06:35:46;;;;;;;13.75;7.85;;;3.80;99.90;;;;;;5114019;28;20533;-88
2021/11/09 06:38:12;;;;;;;10.27;7.00;;;3.80;99.90;;;;;;5113775;28;20035;-87
2021/11/09 06:40:39;;;;;;;14.45;8.88;;;3.80;99.90;;;;;;5115030;28;20075;-87
2021/11/09 06:43:06;;;;;;;14.43;8.15;;;3.80;99.90;;;;;;5114251;28;20415;-88
2021/11/09 06:45:33;;;;;;;12.82;8.40;;;3.80;99.90;;;;;;5118641;27;20470;-88
2021/11/09 06:48:02;;;;;;;13.23;7.60;;;3.80;99.90;;;;;;5096513;27;20064;-88
2021/11/09 06:50:35;;;;;;;12.88;7.13;;;3.70;99.90;;;;;;5108960;28;20030;-88
2021/11/09 06:53:04;;;;;;;12.40;7.57;;;3.70;99.90;;;;;;5113770;28;20197;-88
2021/11/09 06:55:30;;;;;;;15.80;8.05;;;3.70;99.90;;;;;;5113665;28;20026;-88
2021/11/09 06:57:56;;;;;;;14.63;8.20;;;3.70;99.90;;;;;;5115849;27;20510;-89
2021/11/09 07:00:23;;;;;;;12.63;7.57;;;3.70;99.90;;;;;;5119600;27;20020;-88
2021/11/09 07:02:50;;;;;;;11.48;7.47;;;3.70;99.90;;;;;;5113187;28;20076;-89
2021/11/09 07:05:21;;;;;;;13.20;8.10;;;3.70;99.90;;;;;;5111571;28;20047;-89
2021/11/09 07:07:47;;;;;;;10.27;6.90;;;3.70;99.90;;;;;;5097390;28;20019;-89
2021/11/09 07:10:14;;;;;;;13.95;7.88;;;3.70;99.90;;;;;;5113439;28;20027;-89
2021/11/09 07:12:41;;;;;;;16.00;8.40;;;3.70;99.90;;;;;;5113492;28;20378;-89
2021/11/09 07:15:07;;;;;;;12.90;7.97;;;3.70;99.90;;;;;;5113407;28;20020;-89
2021/11/09 07:17:33;;;;;;;15.65;8.48;;;3.70;99.90;;;;;;5129519;27;20023;-88
2021/11/09 07:20:00;;;;;;;13.20;8.82;;;3.70;99.90;;;;;;5120357;27;20028;-89
2021/11/09 07:22:26;;;;;;;13.35;8.15;;;3.80;99.90;;;;;;5113417;28;20374;-88
2021/11/09 07:24:53;;;;;;;13.85;8.95;;;3.80;99.90;;;;;;5113128;28;20044;-89
2021/11/09 07:27:22;;;;;;;16.02;7.95;;;3.80;99.90;;;;;;5096008;28;20059;-89
2021/11/09 07:29:52;;;;;;;15.05;8.98;;;3.90;99.90;;;;;;5130092;27;20425;-89
2021/11/09 07:32:20;;;;;;;16.65;8.60;;;3.90;99.90;;;;;;5096706;28;20023;-89
2021/11/09 07:34:46;;;;;;;14.18;7.97;;;3.90;99.90;;;;;;5112986;28;20024;-89
2021/11/09 07:37:12;;;;;;;13.88;8.50;;;3.90;99.90;;;;;;5112837;28;20042;-89
2021/11/09 07:39:44;;;;;;;14.05;8.35;;;3.90;99.90;;;;;;5113440;28;20364;-89
2021/11/09 07:42:13;;;;;;;12.88;8.30;;;4.00;99.90;;;;;;5096218;28;20035;-88
2021/11/09 07:44:39;;;;;;;16.58;9.00;;;4.10;99.90;;;;;;5113079;28;20023;-89
2021/11/09 07:47:05;;;;;;;18.17;9.00;;;4.20;99.90;;;;;;5113669;28;20020;-88
2021/11/09 07:49:31;;;;;;;17.38;9.68;;;4.30;99.90;;;;;;5112038;28;20027;-87
2021/11/09 07:51:57;;;;;;;17.20;9.55;;;4.50;99.90;;;;;;5113209;28;20576;-89
2021/11/09 07:54:27;;;;;;;14.88;8.68;;;4.60;99.90;;;;;;5130197;28;20024;-89
2021/11/09 07:57:01;;;;;;;19.33;9.70;;;4.70;99.90;;;;;;5113614;28;20049;-89
2021/11/09 08:02:03;;;;;;;18.90;9.32;;;4.90;99.90;;;;;;5114168;28;20035;-89
2021/11/09 08:04:37;;;;;;;19.63;9.65;;;5.00;99.90;;;;;;5112558;28;20016;-88
2021/11/09 08:07:11;;;;;;;15.50;9.02;;;5.10;99.90;;;;;;5112259;28;20081;-88
2021/11/09 08:09:43;;;;;;;18.70;9.13;;;5.20;99.90;;;;;;5129326;27;20395;-89
2021/11/09 08:12:10;;;;;;;21.25;10.60;;;5.20;99.90;;;;;;5079711;28;20028;-89
2021/11/09 08:14:39;;;;;;;21.15;10.00;;;5.40;99.90;;;;;;5112585;28;20459;-89
2021/11/09 08:17:06;;;;;;;22.85;10.90;;;5.50;99.90;;;;;;5089856;28;20121;-88
2021/11/09 08:19:34;;;;;;;20.92;10.40;;;5.60;99.90;;;;;;5112819;28;20035;-88
2021/11/09 08:22:01;;;;;;;22.20;12.02;;;5.70;99.90;;;;;;5112457;28;20024;-88
2021/11/09 08:24:27;;;;;;;24.80;11.82;;;5.80;99.90;;;;;;5113807;28;20024;-88
2021/11/09 08:26:56;;;;;;;26.88;12.27;;;5.90;99.90;;;;;;5112392;28;20043;-88
2021/11/09 08:29:25;;;;;;;27.05;13.02;;;6.00;99.90;;;;;;5099900;28;20167;-88
2021/11/09 08:31:53;;;;;;;21.38;12.75;;;6.10;99.90;;;;;;5111933;28;20019;-88
2021/11/09 08:34:19;;;;;;;28.27;14.13;;;6.30;99.90;;;;;;5113429;28;20429;-88
2021/11/09 08:36:46;;;;;;;30.45;14.02;;;6.40;99.90;;;;;;5112219;28;20058;-86
2021/11/09 08:39:20;;;;;;;25.77;14.60;;;6.40;99.90;;;;;;5111909;28;20544;-87
2021/11/09 08:44:25;;;;;;;28.52;13.85;;;6.70;99.90;;;;;;5113486;28;20032;-88
2021/11/09 08:46:57;;;;;;;33.00;15.10;;;6.80;99.90;;;;;;5112181;28;20054;-87
2021/11/09 08:49:29;;;;;;;30.95;15.07;;;6.90;99.90;;;;;;5117425;28;20031;-87
2021/11/09 08:51:57;;;;;;;24.02;13.52;;;7.70;99.90;;;;;;5111944;28;20085;-87
2021/11/09 08:54:50;;;;;;;33.70;13.52;;;9.10;99.90;;;;;;5112236;28;20114;-87
2021/11/09 09:05:09;;;;;;;22.52;9.32;;;13.70;99.90;;;;;;5114410;28;20364;-87
2021/11/09 09:07:35;;;;;;;15.77;7.53;;;14.40;99.90;;;;;;5114967;28;20114;-88
2021/11/09 09:10:05;;;;;;;15.82;7.53;;;14.90;99.90;;;;;;5101332;28;20474;-86
2021/11/09 09:12:32;;;;;;;15.32;7.75;;;15.40;99.90;;;;;;5116807;28;20016;-88
2021/11/09 09:15:00;;;;;;;18.88;7.32;;;15.70;99.90;;;;;;5114631;28;20039;-87
2021/11/09 09:17:28;;;;;;;15.02;6.63;;;16.20;99.90;;;;;;5116195;28;20035;-88
2021/11/09 09:20:06;;;;;;;15.73;7.53;;;16.50;99.90;;;;;;5115202;28;20048;-88
2021/11/09 09:22:37;;;;;;;16.35;7.05;;;16.80;99.90;;;;;;5115111;28;20087;-87
2021/11/09 09:25:23;;;;;;;15.55;6.65;;;16.80;99.90;;;;;;5114346;28;20020;-87
2021/11/09 09:30:46;;;;;;;14.45;6.25;;;17.20;99.90;;;;;;5115387;28;20050;-87
2021/11/09 09:57:11;;;;;;;15.60;6.50;;;19.60;99.90;;;;;;5108114;28;20034;-86
2021/11/09 09:59:47;;;;;;;16.92;6.28;;;19.70;99.90;;;;;;5115312;27;20112;-88
2021/11/09 10:02:24;;;;;;;17.42;6.03;;;19.70;99.90;;;;;;5114085;28;20024;-86
2021/11/09 10:04:57;;;;;;;15.32;6.03;;;19.70;99.90;;;;;;5122860;27;20016;-86
2021/11/09 10:07:33;;;;;;;16.98;7.13;;;19.60;99.90;;;;;;5113580;28;20016;-86
2021/11/09 10:10:02;;;;;;;17.10;7.28;;;19.60;99.90;;;;;;5106985;27;20077;-87
2021/11/09 10:12:34;;;;;;;15.88;6.18;;;19.30;99.90;;;;;;5115294;28;20023;-86
2021/11/09 10:15:18;;;;;;;15.38;6.50;;;19.30;99.90;;;;;;5113135;28;20043;-85
2021/11/09 10:17:47;;;;;;;13.68;6.30;;;19.60;99.90;;;;;;5096271;28;20494;-86
2021/11/09 10:20:15;;;;;;;17.15;6.43;;;19.70;99.90;;;;;;5113831;27;20074;-87
2021/11/09 10:22:43;;;;;;;17.63;7.72;;;19.80;99.90;;;;;;5113563;28;20016;-86
2021/11/09 10:25:12;;;;;;;17.23;6.75;;;19.90;99.90;;;;;;5113475;28;20012;-85
2021/11/09 10:27:43;;;;;;;14.63;6.50;;;19.90;99.90;;;;;;5114207;28;20028;-86
2021/11/09 10:30:21;;;;;;;14.95;6.35;;;20.00;99.90;;;;;;5114343;27;20055;-87
2021/11/09 10:32:47;;;;;;;13.38;5.40;;;20.40;99.90;;;;;;5107288;28;20024;-86
2021/11/09 10:35:16;;;;;;;13.85;6.03;;;20.70;99.90;;;;;;5096324;28;20114;-87
2021/11/09 10:37:48;;;;;;;13.77;6.00;;;20.90;99.90;;;;;;5113122;28;20023;-87
2021/11/09 10:40:21;;;;;;;17.95;6.80;;;21.00;99.90;;;;;;5092447;28;20080;-87
2021/11/09 10:42:57;;;;;;;10.90;5.05;;;20.90;99.90;;;;;;5113405;28;20237;-87
2021/11/09 10:45:26;;;;;;;15.63;6.63;;;20.90;99.90;;;;;;5115102;28;20540;-87
2021/11/09 10:48:05;;;;;;;15.02;6.07;;;20.90;99.90;;;;;;5104097;28;20352;-86
2021/11/09 10:50:44;;;;;;;16.05;6.22;;;20.90;99.90;;;;;;5116408;27;20020;-87
2021/11/09 11:04:39;;;;;;;16.02;6.07;;;21.30;99.90;;;;;;5114855;28;20152;-86
2021/11/09 11:07:06;;;;;;;;;;;21.50;99.90;;;;;;5113529;28;20493;-87
2021/11/09 11:09:35;;;;;;;17.75;6.68;;;21.70;99.70;;;;;;5120881;27;20365;-86
2021/11/09 11:12:10;;;;;;;14.75;5.20;;;21.80;99.50;;;;;;5112340;28;20035;-86
2021/11/09 11:14:46;;;;;;;;;;;21.80;98.80;;;;;;5094569;28;20023;-86
2021/11/09 11:17:18;;;;;;;10.68;4.80;;;21.60;99.10;;;;;;5108311;28;19907;-86
2021/11/09 11:19:55;;;;;;;13.35;5.43;;;21.70;99.30;;;;;;5099261;27;20031;-86
2021/11/09 11:22:41;;;;;;;14.55;6.32;;;21.90;98.90;;;;;;5109872;28;20411;-87
2021/11/09 11:25:08;;;;;;;12.43;5.25;;;21.70;98.40;;;;;;5088065;28;20026;-86
2021/11/09 11:27:36;;;;;;;10.13;4.22;;;21.70;98.20;;;;;;5109879;28;20478;-87
2021/11/09 11:30:04;;;;;;;12.93;5.70;;;21.70;98.10;;;;;;5111426;28;20031;-86
2021/11/09 11:32:32;;;;;;;16.13;6.47;;;22.10;98.50;;;;;;5092723;28;20467;-87
2021/11/09 11:34:58;;;;;;;13.90;5.20;;;22.30;97.30;;;;;;5110004;28;20020;-86
2021/11/09 11:37:24;;;;;;;11.35;4.80;;;22.30;97.00;;;;;;5109791;28;20030;-86
2021/11/09 11:40:04;;;;;;;12.35;4.90;;;22.20;97.40;;;;;;5123700;27;20034;-87
2021/11/09 11:42:39;;;;;;;11.57;4.97;;;22.20;96.90;;;;;;5109785;28;20040;-87
2021/11/09 11:45:06;;;;;;;13.98;5.05;;;22.40;97.40;;;;;;5106638;28;20062;-87
2021/11/09 11:47:31;;;;;;;12.40;5.63;;;22.50;97.10;;;;;;5095539;28;20024;-87
2021/11/09 11:50:04;;;;;;;12.80;4.57;;;22.60;97.00;;;;;;5111860;28;20344;-87
2021/11/09 11:52:50;;;;;;;13.25;5.63;;;22.80;97.20;;;;;;5112927;28;20121;-87
2021/11/09 11:55:26;;;;;;;12.80;5.45;;;23.00;96.40;;;;;;5107769;28;20020;-87
2021/11/09 11:58:16;;;;;;;14.60;6.05;;;22.70;95.20;;;;;;5103829;28;20152;-87
2021/11/09 12:00:56;;;;;;;12.90;5.63;;;22.10;95.90;;;;;;5113933;28;20031;-87
2021/11/09 12:03:33;;;;;;;14.98;6.47;;;21.80;96.60;;;;;;5111898;28;20028;-87
2021/11/09 12:06:13;;;;;;;15.38;5.68;;;21.50;96.10;;;;;;5104900;28;20022;-87
2021/11/09 12:08:50;;;;;;;11.40;4.90;;;20.70;96.60;;;;;;5110950;28;20028;-87
2021/11/09 12:11:22;;;;;;;15.68;5.22;;;19.30;98.10;;;;;;5110782;28;20089;-87
2021/11/09 12:13:59;;;;;;;15.13;6.20;;;18.10;99.90;;;;;;5110933;28;20487;-87
2021/11/09 12:16:48;;;;;;;11.55;5.05;;;17.10;99.90;;;;;;5111566;28;20015;-87
2021/11/09 12:19:37;;;;;;;14.20;6.00;;;16.40;99.90;;;;;;5108572;28;20034;-86
2021/11/09 12:22:12;;;;;;;13.07;6.00;;;15.90;99.90;;;;;;5104401;28;20035;-87
2021/11/09 12:25:35;;;;;;;16.55;6.93;;;15.50;99.90;;;;;;5109767;28;20032;-85
2021/11/09 12:28:12;;;;;;;17.73;7.05;;;15.40;99.90;;;;;;5053261;28;20087;-86
2021/11/09 12:30:46;;;;;;;13.07;6.40;;;15.80;99.90;;;;;;5102473;28;20466;-87
2021/11/09 12:33:18;;;;;;;12.45;5.38;;;17.00;99.90;;;;;;5124901;27;20028;-85
2021/11/09 12:36:11;;;;;;;13.70;5.90;;;18.30;99.90;;;;;;5114794;28;20092;-87
2021/11/09 12:38:49;;;;;;;14.00;5.30;;;19.30;99.90;;;;;;5115937;28;20088;-88
2021/11/09 12:41:32;;;;;;;15.13;5.93;;;20.10;99.90;;;;;;5126495;27;20101;-87
2021/11/09 12:44:01;;;;;;;18.40;6.68;;;20.70;99.90;;;;;;5105623;28;20079;-87
2021/11/09 12:46:41;;;;;;;12.00;5.18;;;20.60;98.80;;;;;;5115708;28;20020;-87
2021/11/09 12:49:17;;;;;;;12.32;4.80;;;20.70;99.60;;;;;;5111371;28;20044;-89
2021/11/09 12:51:49;;;;;;;14.90;5.85;;;21.00;99.60;;;;;;5117168;28;20028;-88
2021/11/09 12:54:18;;;;;;;12.10;5.20;;;21.10;99.10;;;;;;5115946;28;20030;-88
2021/11/09 12:56:47;;;;;;;13.05;5.15;;;21.00;99.30;;;;;;5115502;28;20023;-87
2021/11/09 12:59:28;;;;;;;13.05;5.32;;;20.90;99.90;;;;;;5119091;28;20037;-86
2021/11/09 13:07:33;;;;;;;12.50;5.47;;;20.20;99.50;;;;;;5109595;28;20043;-87
2021/11/09 13:10:16;;;;;;;16.02;6.00;;;20.10;99.30;;;;;;5107554;27;20077;-86
2021/11/09 13:12:42;;;;;;;9.57;4.20;;;20.10;99.40;;;;;;5117469;28;20051;-86
2021/11/09 13:15:20;;;;;;;9.93;4.13;;;20.30;99.90;;;;;;5115633;28;20058;-86
2021/11/09 13:17:58;;;;;;;9.68;4.32;;;20.60;99.90;;;;;;5115513;28;20028;-87
2021/11/09 13:22:57;;;;;;;14.35;5.55;;;20.40;99.90;;;;;;5117996;28;20042;-86
2021/11/09 13:25:34;;;;;;;11.45;4.32;;;19.70;99.90;;;;;;5116071;28;20032;-87
2021/11/09 13:28:11;;;;;;;11.30;4.70;;;19.10;99.90;;;;;;5115864;28;20065;-86
2021/11/09 13:30:37;;;;;;;11.20;4.93;;;18.90;99.90;;;;;;5115546;28;20110;-86
2021/11/09 13:33:04;;;;;;;16.65;6.38;;;18.90;99.90;;;;;;5116340;28;20079;-86
2021/11/09 13:35:44;;;;;;;15.52;6.82;;;19.00;99.90;;;;;;5116742;28;20023;-86
2021/11/09 13:38:22;;;;;;;12.82;5.45;;;18.60;99.90;;;;;;5116640;27;20067;-87
2021/11/09 13:40:57;;;;;;;15.55;5.82;;;17.50;99.90;;;;;;5114648;28;20090;-87
2021/11/09 13:43:38;;;;;;;15.32;5.85;;;16.70;99.90;;;;;;5114610;28;20027;-86
2021/11/09 13:46:10;;;;;;;12.18;5.72;;;16.10;99.90;;;;;;5111915;28;20097;-85
2021/11/09 13:48:39;;;;;;;12.27;5.50;;;15.70;99.90;;;;;;5094668;28;20040;-86
2021/11/09 13:51:10;;;;;;;14.20;5.43;;;15.30;99.90;;;;;;5110048;28;20030;-86
2021/11/09 13:53:41;;;;;;;12.57;5.13;;;15.10;99.90;;;;;;5113996;28;20026;-86
2021/11/09 13:56:14;;;;;;;15.63;6.30;;;15.00;99.90;;;;;;5114201;28;20028;-86
2021/11/09 13:58:59;;;;;;;16.85;6.18;;;14.80;99.90;;;;;;5098195;28;20031;-86
2021/11/09 14:01:54;;;;;;;15.90;5.90;;;14.70;99.90;;;;;;5116770;28;20119;-86
2021/11/09 14:13:45;;;;;;;16.27;6.22;;;14.10;99.90;;;;;;5114871;28;20044;-85
2021/11/09 14:18:51;;;;;;;13.07;5.32;;;13.80;99.90;;;;;;5115177;28;20038;-85
2021/11/09 14:21:27;;;;;;;12.80;5.35;;;13.70;99.90;;;;;;5114272;28;20070;-85
2021/11/09 14:23:53;;;;;;;14.60;5.68;;;13.60;99.90;;;;;;5097726;28;20016;-85
2021/11/09 14:26:27;;;;;;;16.42;5.57;;;13.60;99.90;;;;;;5096719;28;20180;-85
2021/11/09 14:28:55;;;;;;;14.60;5.80;;;13.60;99.90;;;;;;5113099;28;20031;-86
2021/11/09 14:31:32;;;;;;;12.10;4.50;;;13.70;99.90;;;;;;5113491;28;20370;-85
2021/11/09 14:34:13;;;;;;;12.50;4.43;;;13.60;99.90;;;;;;5110349;28;20024;-85
2021/11/09 14:36:40;;;;;;;14.60;5.28;;;13.70;99.90;;;;;;5104781;28;20031;-85
2021/11/09 14:39:18;;;;;;;14.93;4.80;;;13.70;99.90;;;;;;5113491;28;20073;-86
2021/11/09 14:47:40;;;;;;;13.15;5.82;;;13.60;99.90;;;;;;5116736;28;20047;-85
2021/11/09 14:50:09;;;;;;;13.00;5.10;;;13.50;99.90;;;;;;5113364;28;20026;-86
2021/11/09 14:52:39;;;;;;;13.32;4.97;;;13.50;99.90;;;;;;5112666;28;20074;-86
2021/11/09 14:55:20;;;;;;;12.43;4.25;;;13.50;99.90;;;;;;5113409;28;20046;-85
2021/11/09 14:57:49;;;;;;;9.55;3.83;;;13.50;99.90;;;;;;5114093;28;20054;-86
2021/11/09 15:00:16;;;;;;;13.73;4.63;;;13.40;99.90;;;;;;5114818;28;20428;-86
2021/11/09 15:02:43;;;;;;;13.90;5.00;;;13.40;99.90;;;;;;5096704;28;20052;-86
2021/11/09 15:05:21;;;;;;;12.55;4.90;;;13.30;99.90;;;;;;5115306;28;20033;-85
2021/11/09 15:08:25;;;;;;;12.30;4.03;;;13.30;99.90;;;;;;5095422;28;20027;-86
2021/11/09 15:24:56;;;;;;;9.48;3.38;;;13.30;99.90;;;;;;5071462;28;20028;-87
2021/11/09 15:27:26;;;;;;;9.65;3.80;;;13.00;99.90;;;;;;5113475;28;20078;-86
2021/11/09 15:29:56;;;;;;;8.43;3.63;;;13.00;99.90;;;;;;5096717;28;20047;-86
2021/11/09 15:32:29;;;;;;;10.07;3.20;;;13.00;99.90;;;;;;5113399;28;20027;-86
2021/11/09 15:35:44;;;;;;;6.72;3.10;;;12.90;99.90;;;;;;5113155;28;20475;-86
2021/11/09 15:37:47;;;;;;;8.90;3.42;;;12.90;99.90;;;;;;5106476;28;20030;-86
2021/11/09 15:40:16;;;;;;;7.20;3.17;;;13.00;99.90;;;;;;5096075;28;20459;-86
2021/11/09 15:42:44;;;;;;;9.45;3.35;;;12.90;99.90;;;;;;5096548;28;20038;-86
2021/11/09 15:45:12;;;;;;;8.73;3.70;;;13.00;99.90;;;;;;5114034;28;20031;-85
2021/11/09 15:47:39;;;;;;;9.27;3.25;;;12.90;99.90;;;;;;5095921;28;20038;-85
2021/11/09 15:50:08;;;;;;;11.18;3.22;;;12.80;99.90;;;;;;5096160;28;20024;-85
2021/11/09 15:52:35;;;;;;;10.77;3.20;;;12.80;99.90;;;;;;5096440;28;20036;-86
2021/11/09 15:55:02;;;;;;;6.93;2.88;;;12.80;99.90;;;;;;5093686;28;20081;-86
2021/11/09 15:57:28;;;;;;;11.35;3.20;;;12.70;99.90;;;;;;5109145;28;20020;-85
2021/11/09 15:59:56;;;;;;;12.05;4.22;;;12.60;99.90;;;;;;5109975;28;20452;-85
2021/11/09 16:02:23;;;;;;;10.00;3.83;;;12.60;99.90;;;;;;5120105;27;20032;-85